sensor_id;sensor_type;location;lat;lon;timestamp;pressure;altitude;pressure_sealevel;temperature;humidity
27712;BME280;2377;51.734;8.950;2023-02-19T00:01:38;97793.16;;;9.56;100.00
27712;BME280;2377;51.734;8.950;2023-02-19T00:04:09;97783.16;;;9.55;100.00
27712;BME280;2377;51.734;8.950;2023-02-19T00:06:37;97775.69;;;9.60;100.00
27712;BME280;2377;51.734;8.950;2023-02-19T00:09:04;97769.22;;;9.57;100.00
27712;BME280;2377;51.734;8.950;2023-02-19T00:11:33;97770.56;;;9.60;100.00
27712;BME280;2377;51.734;8.950;2023-02-19T00:14:02;97756.66;;;9.56;100.00
27712;BME280;2377;51.734;8.950;2023-02-19T00:16:34;97753.50;;;9.60;100.00
27712;BME280;2377;51.734;8.950;2023-02-19T00:19:05;97763.72;;;9.53;100.00
27712;BME280;2377;51.734;8.950;2023-02-19T00:21:33;97743.72;;;9.57;100.00
27712;BME280;2377;51.734;8.950;2023-02-19T00:24:03;97745.88;;;9.53;100.00
27712;BME280;2377;51.734;8.950;2023-02-19T00:26:31;97749.94;;;9.61;100.00
27712;BME280;2377;51.734;8.950;2023-02-19T00:29:00;97737.06;;;9.49;100.00
27712;BME280;2377;51.734;8.950;2023-02-19T00:31:31;97732.31;;;9.60;100.00
27712;BME280;2377;51.734;8.950;2023-02-19T00:34:01;97724.41;;;9.61;100.00
27712;BME280;2377;51.734;8.950;2023-02-19T00:36:33;97715.00;;;9.62;100.00
27712;BME280;2377;51.734;8.950;2023-02-19T00:39:00;97710.59;;;9.50;100.00
27712;BME280;2377;51.734;8.950;2023-02-19T00:41:27;97711.56;;;9.49;100.00
27712;BME280;2377;51.734;8.950;2023-02-19T00:43:57;97708.22;;;9.49;100.00
27712;BME280;2377;51.734;8.950;2023-02-19T00:46:28;97718.81;;;9.52;100.00
27712;BME280;2377;51.734;8.950;2023-02-19T00:48:57;97708.38;;;9.54;100.00
27712;BME280;2377;51.734;8.950;2023-02-19T00:51:26;97716.56;;;9.63;100.00
27712;BME280;2377;51.734;8.950;2023-02-19T00:53:54;97706.78;;;9.60;100.00
27712;BME280;2377;51.734;8.950;2023-02-19T00:56:21;97686.00;;;9.56;100.00
27712;BME280;2377;51.734;8.950;2023-02-19T00:58:49;97690.28;;;9.62;100.00
27712;BME280;2377;51.734;8.950;2023-02-19T01:01:17;97687.63;;;9.50;100.00
27712;BME280;2377;51.734;8.950;2023-02-19T01:03:45;97693.84;;;9.55;100.00
27712;BME280;2377;51.734;8.950;2023-02-19T01:06:16;97689.75;;;9.53;100.00
27712;BME280;2377;51.734;8.950;2023-02-19T01:08:44;97691.38;;;9.48;100.00
27712;BME280;2377;51.734;8.950;2023-02-19T01:11:12;97696.19;;;9.56;100.00
27712;BME280;2377;51.734;8.950;2023-02-19T01:13:40;97688.97;;;9.53;100.00
27712;BME280;2377;51.734;8.950;2023-02-19T01:16:12;97703.91;;;9.49;100.00
27712;BME280;2377;51.734;8.950;2023-02-19T01:18:40;97700.38;;;9.50;100.00
27712;BME280;2377;51.734;8.950;2023-02-19T01:21:11;97706.41;;;9.56;100.00
27712;BME280;2377;51.734;8.950;2023-02-19T01:23:40;97704.31;;;9.46;100.00
27712;BME280;2377;51.734;8.950;2023-02-19T01:26:14;97687.41;;;9.52;100.00
27712;BME280;2377;51.734;8.950;2023-02-19T01:28:42;97694.44;;;9.57;100.00
27712;BME280;2377;51.734;8.950;2023-02-19T01:31:13;97707.44;;;9.48;100.00
27712;BME280;2377;51.734;8.950;2023-02-19T01:33:44;97711.97;;;9.46;100.00
27712;BME280;2377;51.734;8.950;2023-02-19T01:36:12;97708.03;;;9.50;100.00
27712;BME280;2377;51.734;8.950;2023-02-19T01:38:41;97717.78;;;9.60;100.00
27712;BME280;2377;51.734;8.950;2023-02-19T01:41:12;97713.00;;;9.64;100.00
27712;BME280;2377;51.734;8.950;2023-02-19T01:43:59;97709.34;;;9.60;100.00
27712;BME280;2377;51.734;8.950;2023-02-19T01:46:27;97699.91;;;9.60;100.00
27712;BME280;2377;51.734;8.950;2023-02-19T01:48:57;97703.66;;;9.58;100.00
27712;BME280;2377;51.734;8.950;2023-02-19T01:51:26;97704.44;;;9.58;100.00
27712;BME280;2377;51.734;8.950;2023-02-19T01:53:58;97697.25;;;9.48;100.00
27712;BME280;2377;51.734;8.950;2023-02-19T01:56:29;97698.56;;;9.58;100.00
27712;BME280;2377;51.734;8.950;2023-02-19T01:58:59;97708.00;;;9.57;100.00
27712;BME280;2377;51.734;8.950;2023-02-19T02:01:26;97708.72;;;9.64;100.00
27712;BME280;2377;51.734;8.950;2023-02-19T02:03:54;97712.44;;;9.62;100.00
27712;BME280;2377;51.734;8.950;2023-02-19T02:06:25;97689.31;;;9.57;100.00
27712;BME280;2377;51.734;8.950;2023-02-19T02:08:57;97699.75;;;9.55;100.00
27712;BME280;2377;51.734;8.950;2023-02-19T02:11:46;97696.34;;;9.61;100.00
27712;BME280;2377;51.734;8.950;2023-02-19T02:14:14;97700.47;;;9.62;100.00
27712;BME280;2377;51.734;8.950;2023-02-19T02:16:54;97702.94;;;9.50;100.00
27712;BME280;2377;51.734;8.950;2023-02-19T02:22:31;97696.56;;;9.60;100.00
27712;BME280;2377;51.734;8.950;2023-02-19T02:25:31;97704.91;;;9.48;100.00
27712;BME280;2377;51.734;8.950;2023-02-19T02:28:19;97690.56;;;9.47;100.00
27712;BME280;2377;51.734;8.950;2023-02-19T02:30:53;97699.19;;;9.53;100.00
27712;BME280;2377;51.734;8.950;2023-02-19T02:33:30;97677.81;;;9.47;100.00
27712;BME280;2377;51.734;8.950;2023-02-19T02:36:04;97680.53;;;9.52;100.00
27712;BME280;2377;51.734;8.950;2023-02-19T02:38:37;97688.50;;;9.63;100.00
27712;BME280;2377;51.734;8.950;2023-02-19T02:41:07;97673.75;;;9.65;100.00
27712;BME280;2377;51.734;8.950;2023-02-19T02:43:34;97688.66;;;9.68;100.00
27712;BME280;2377;51.734;8.950;2023-02-19T02:46:03;97678.88;;;9.65;100.00
27712;BME280;2377;51.734;8.950;2023-02-19T02:48:34;97687.91;;;9.61;100.00
27712;BME280;2377;51.734;8.950;2023-02-19T02:51:13;97679.16;;;9.50;100.00
27712;BME280;2377;51.734;8.950;2023-02-19T02:53:47;97689.59;;;9.48;100.00
27712;BME280;2377;51.734;8.950;2023-02-19T02:56:34;97683.97;;;9.40;100.00
27712;BME280;2377;51.734;8.950;2023-02-19T02:59:04;97680.63;;;9.39;100.00
27712;BME280;2377;51.734;8.950;2023-02-19T03:01:40;97680.13;;;9.56;100.00
27712;BME280;2377;51.734;8.950;2023-02-19T03:04:32;97671.69;;;9.55;100.00
27712;BME280;2377;51.734;8.950;2023-02-19T03:07:06;97668.09;;;9.63;100.00
27712;BME280;2377;51.734;8.950;2023-02-19T03:09:40;97662.69;;;9.52;100.00
27712;BME280;2377;51.734;8.950;2023-02-19T03:12:13;97669.91;;;9.56;100.00
27712;BME280;2377;51.734;8.950;2023-02-19T03:15:05;97667.72;;;9.59;100.00
27712;BME280;2377;51.734;8.950;2023-02-19T03:17:58;97665.63;;;9.49;100.00
27712;BME280;2377;51.734;8.950;2023-02-19T03:20:49;97677.00;;;9.53;100.00
27712;BME280;2377;51.734;8.950;2023-02-19T03:23:19;97677.00;;;9.53;100.00
27712;BME280;2377;51.734;8.950;2023-02-19T03:26:10;97670.16;;;9.47;100.00
27712;BME280;2377;51.734;8.950;2023-02-19T03:28:39;97681.94;;;9.48;100.00
27712;BME280;2377;51.734;8.950;2023-02-19T03:31:29;97687.19;;;9.53;100.00
27712;BME280;2377;51.734;8.950;2023-02-19T03:34:03;97692.88;;;9.56;100.00
27712;BME280;2377;51.734;8.950;2023-02-19T03:36:38;97697.41;;;9.53;100.00
27712;BME280;2377;51.734;8.950;2023-02-19T03:39:11;97697.41;;;9.53;100.00
27712;BME280;2377;51.734;8.950;2023-02-19T03:41:47;97711.56;;;9.49;100.00
27712;BME280;2377;51.734;8.950;2023-02-19T03:44:27;97703.91;;;9.49;100.00
27712;BME280;2377;51.734;8.950;2023-02-19T03:47:04;97710.16;;;9.53;100.00
27712;BME280;2377;51.734;8.950;2023-02-19T03:49:43;97709.44;;;9.46;100.00
27712;BME280;2377;51.734;8.950;2023-02-19T03:52:17;97715.09;;;9.48;100.00
27712;BME280;2377;51.734;8.950;2023-02-19T03:54:53;97702.78;;;9.45;100.00
27712;BME280;2377;51.734;8.950;2023-02-19T03:57:32;97706.88;;;9.46;100.00
27712;BME280;2377;51.734;8.950;2023-02-19T04:00:09;97713.13;;;9.50;100.00
27712;BME280;2377;51.734;8.950;2023-02-19T04:02:46;97713.13;;;9.50;100.00
27712;BME280;2377;51.734;8.950;2023-02-19T04:05:19;97716.69;;;9.43;100.00
27712;BME280;2377;51.734;8.950;2023-02-19T04:07:52;97715.72;;;9.44;100.00
27712;BME280;2377;51.734;8.950;2023-02-19T04:10:20;97726.47;;;9.52;100.00
27712;BME280;2377;51.734;8.950;2023-02-19T04:12:54;97739.22;;;9.52;100.00
27712;BME280;2377;51.734;8.950;2023-02-19T04:15:29;97737.22;;;9.55;100.00
27712;BME280;2377;51.734;8.950;2023-02-19T04:18:01;97758.91;;;9.45;100.00
27712;BME280;2377;51.734;8.950;2023-02-19T04:20:36;97765.16;;;9.43;100.00
27712;BME280;2377;51.734;8.950;2023-02-19T04:23:04;97748.59;;;9.27;100.00
27712;BME280;2377;51.734;8.950;2023-02-19T04:25:33;97748.00;;;9.31;100.00
27712;BME280;2377;51.734;8.950;2023-02-19T04:28:02;97746.19;;;9.39;100.00
27712;BME280;2377;51.734;8.950;2023-02-19T04:30:29;97754.81;;;9.38;100.00
27712;BME280;2377;51.734;8.950;2023-02-19T04:32:56;97748.16;;;9.37;100.00
27712;BME280;2377;51.734;8.950;2023-02-19T04:35:23;97756.00;;;9.35;100.00
27712;BME280;2377;51.734;8.950;2023-02-19T04:37:51;97755.56;;;9.38;100.00
27712;BME280;2377;51.734;8.950;2023-02-19T04:40:19;97760.28;;;9.41;100.00
27712;BME280;2377;51.734;8.950;2023-02-19T04:42:46;97747.13;;;9.44;100.00
27712;BME280;2377;51.734;8.950;2023-02-19T04:45:13;97772.44;;;9.46;100.00
27712;BME280;2377;51.734;8.950;2023-02-19T04:47:40;97757.97;;;9.33;100.00
27712;BME280;2377;51.734;8.950;2023-02-19T04:50:08;97761.09;;;9.35;100.00
27712;BME280;2377;51.734;8.950;2023-02-19T04:52:35;97775.50;;;9.23;100.00
27712;BME280;2377;51.734;8.950;2023-02-19T04:55:04;97772.16;;;9.22;100.00
27712;BME280;2377;51.734;8.950;2023-02-19T04:57:32;97783.16;;;9.23;100.00
27712;BME280;2377;51.734;8.950;2023-02-19T04:59:59;97779.59;;;9.24;100.00
27712;BME280;2377;51.734;8.950;2023-02-19T05:02:26;97789.78;;;9.24;100.00
27712;BME280;2377;51.734;8.950;2023-02-19T05:04:53;97797.50;;;9.17;100.00
27712;BME280;2377;51.734;8.950;2023-02-19T05:07:20;97790.66;;;9.11;100.00
27712;BME280;2377;51.734;8.950;2023-02-19T05:09:47;97793.75;;;9.20;100.00
27712;BME280;2377;51.734;8.950;2023-02-19T05:12:15;97777.91;;;9.11;100.00
27712;BME280;2377;51.734;8.950;2023-02-19T05:14:42;97798.84;;;9.20;100.00
27712;BME280;2377;51.734;8.950;2023-02-19T05:17:10;97794.16;;;9.17;100.00
27712;BME280;2377;51.734;8.950;2023-02-19T05:19:37;97796.91;;;9.15;100.00
27712;BME280;2377;51.734;8.950;2023-02-19T05:22:04;97797.75;;;9.02;100.00
27712;BME280;2377;51.734;8.950;2023-02-19T05:24:31;97798.09;;;9.13;100.00
27712;BME280;2377;51.734;8.950;2023-02-19T05:26:58;97782.75;;;9.19;100.00
27712;BME280;2377;51.734;8.950;2023-02-19T05:29:26;97803.63;;;9.03;100.00
27712;BME280;2377;51.734;8.950;2023-02-19T05:31:53;97796.91;;;9.15;100.00
27712;BME280;2377;51.734;8.950;2023-02-19T05:34:20;97802.41;;;9.12;100.00
27712;BME280;2377;51.734;8.950;2023-02-19T05:36:47;97795.78;;;9.04;100.00
27712;BME280;2377;51.734;8.950;2023-02-19T05:39:15;97804.81;;;9.00;100.00
27712;BME280;2377;51.734;8.950;2023-02-19T05:41:42;97799.69;;;9.00;100.00
27712;BME280;2377;51.734;8.950;2023-02-19T05:44:09;97814.56;;;9.10;100.00
27712;BME280;2377;51.734;8.950;2023-02-19T05:46:38;97806.75;;;8.98;100.00
27712;BME280;2377;51.734;8.950;2023-02-19T05:49:05;97820.66;;;9.09;100.00
27712;BME280;2377;51.734;8.950;2023-02-19T05:51:32;97818.53;;;9.06;100.00
27712;BME280;2377;51.734;8.950;2023-02-19T05:53:59;97816.97;;;8.98;100.00
27712;BME280;2377;51.734;8.950;2023-02-19T05:56:32;97828.31;;;9.02;100.00
27712;BME280;2377;51.734;8.950;2023-02-19T05:59:02;97831.28;;;9.06;100.00
27712;BME280;2377;51.734;8.950;2023-02-19T06:01:31;97841.69;;;8.98;100.00
27712;BME280;2377;51.734;8.950;2023-02-19T06:04:00;97837.56;;;9.03;100.00
27712;BME280;2377;51.734;8.950;2023-02-19T06:06:27;97840.47;;;9.07;100.00
27712;BME280;2377;51.734;8.950;2023-02-19T06:08:54;97843.25;;;8.99;100.00
27712;BME280;2377;51.734;8.950;2023-02-19T06:11:22;97847.16;;;9.01;100.00
27712;BME280;2377;51.734;8.950;2023-02-19T06:13:49;97843.03;;;9.07;100.00
27712;BME280;2377;51.734;8.950;2023-02-19T06:16:17;97856.19;;;8.97;100.00
27712;BME280;2377;51.734;8.950;2023-02-19T06:18:47;97860.94;;;8.94;100.00
27712;BME280;2377;51.734;8.950;2023-02-19T06:21:16;97863.25;;;9.02;100.00
27712;BME280;2377;51.734;8.950;2023-02-19T06:23:44;97870.31;;;8.93;100.00
27712;BME280;2377;51.734;8.950;2023-02-19T06:26:16;97875.81;;;8.90;100.00
27712;BME280;2377;51.734;8.950;2023-02-19T06:28:44;97861.31;;;8.91;100.00
27712;BME280;2377;51.734;8.950;2023-02-19T06:31:12;97871.72;;;8.89;100.00
27712;BME280;2377;51.734;8.950;2023-02-19T06:33:40;97875.22;;;8.88;100.00
27712;BME280;2377;51.734;8.950;2023-02-19T06:36:11;97878.97;;;8.92;100.00
27712;BME280;2377;51.734;8.950;2023-02-19T06:38:41;97893.47;;;8.92;100.00
27712;BME280;2377;51.734;8.950;2023-02-19T06:41:09;97894.66;;;8.89;100.00
27712;BME280;2377;51.734;8.950;2023-02-19T06:43:36;97902.88;;;8.91;100.00
27712;BME280;2377;51.734;8.950;2023-02-19T06:46:06;97891.53;;;8.87;100.00
27712;BME280;2377;51.734;8.950;2023-02-19T06:48:33;97903.69;;;8.78;100.00
27712;BME280;2377;51.734;8.950;2023-02-19T06:51:01;97907.41;;;8.82;100.00
27712;BME280;2377;51.734;8.950;2023-02-19T06:53:29;97908.78;;;8.78;100.00
27712;BME280;2377;51.734;8.950;2023-02-19T06:55:59;97918.56;;;8.75;100.00
27712;BME280;2377;51.734;8.950;2023-02-19T06:58:27;97928.56;;;8.76;100.00
27712;BME280;2377;51.734;8.950;2023-02-19T07:00:54;97931.72;;;8.78;100.00
27712;BME280;2377;51.734;8.950;2023-02-19T07:03:21;97931.53;;;8.66;100.00
27712;BME280;2377;51.734;8.950;2023-02-19T07:05:49;97933.88;;;8.68;100.00
27712;BME280;2377;51.734;8.950;2023-02-19T07:08:16;97950.34;;;8.79;100.00
27712;BME280;2377;51.734;8.950;2023-02-19T07:10:44;97946.81;;;8.80;100.00
27712;BME280;2377;51.734;8.950;2023-02-19T07:13:12;97957.59;;;8.82;100.00
27712;BME280;2377;51.734;8.950;2023-02-19T07:15:39;97963.84;;;8.79;100.00
27712;BME280;2377;51.734;8.950;2023-02-19T07:18:06;97964.44;;;8.81;100.00
27712;BME280;2377;51.734;8.950;2023-02-19T07:20:35;97974.25;;;8.91;100.00
27712;BME280;2377;51.734;8.950;2023-02-19T07:23:03;97965.44;;;8.94;100.00
27712;BME280;2377;51.734;8.950;2023-02-19T07:25:30;97986.41;;;8.96;100.00
27712;BME280;2377;51.734;8.950;2023-02-19T07:27:57;97978.97;;;8.87;100.00
27712;BME280;2377;51.734;8.950;2023-02-19T07:30:25;97983.28;;;8.87;100.00
27712;BME280;2377;51.734;8.950;2023-02-19T07:32:52;97986.78;;;8.86;100.00
27712;BME280;2377;51.734;8.950;2023-02-19T07:35:20;97992.88;;;8.85;100.00
27712;BME280;2377;51.734;8.950;2023-02-19T07:37:47;98008.16;;;8.78;100.00
27712;BME280;2377;51.734;8.950;2023-02-19T07:40:14;98014.47;;;8.89;100.00
27712;BME280;2377;51.734;8.950;2023-02-19T07:42:41;98014.47;;;8.89;100.00
27712;BME280;2377;51.734;8.950;2023-02-19T07:45:08;98015.03;;;8.78;100.00
27712;BME280;2377;51.734;8.950;2023-02-19T07:47:38;98029.53;;;8.77;100.00
27712;BME280;2377;51.734;8.950;2023-02-19T07:50:05;98033.84;;;8.83;100.00
27712;BME280;2377;51.734;8.950;2023-02-19T07:52:33;98039.72;;;8.91;100.00
27712;BME280;2377;51.734;8.950;2023-02-19T07:55:00;98048.38;;;8.89;100.00
27712;BME280;2377;51.734;8.950;2023-02-19T07:57:28;98046.56;;;8.70;100.00
27712;BME280;2377;51.734;8.950;2023-02-19T07:59:56;98074.16;;;8.40;100.00
27712;BME280;2377;51.734;8.950;2023-02-19T08:02:23;98079.75;;;8.29;100.00
27712;BME280;2377;51.734;8.950;2023-02-19T08:05:09;98085.34;;;8.11;100.00
27712;BME280;2377;51.734;8.950;2023-02-19T08:07:36;98091.22;;;8.04;100.00
27712;BME280;2377;51.734;8.950;2023-02-19T08:10:05;98100.16;;;7.94;100.00
27712;BME280;2377;51.734;8.950;2023-02-19T08:12:56;98099.72;;;7.83;100.00
27712;BME280;2377;51.734;8.950;2023-02-19T08:15:37;98109.44;;;7.73;100.00
27712;BME280;2377;51.734;8.950;2023-02-19T08:18:04;98112.50;;;7.62;100.00
27712;BME280;2377;51.734;8.950;2023-02-19T08:20:33;98109.09;;;7.55;100.00
27712;BME280;2377;51.734;8.950;2023-02-19T08:23:00;98104.78;;;7.49;100.00
27712;BME280;2377;51.734;8.950;2023-02-19T08:25:28;98117.50;;;7.49;100.00
27712;BME280;2377;51.734;8.950;2023-02-19T08:27:55;98110.81;;;7.48;100.00
27712;BME280;2377;51.734;8.950;2023-02-19T08:30:25;98127.28;;;7.52;100.00
27712;BME280;2377;51.734;8.950;2023-02-19T08:32:53;98129.44;;;7.55;100.00
27712;BME280;2377;51.734;8.950;2023-02-19T08:35:21;98124.56;;;7.53;100.00
27712;BME280;2377;51.734;8.950;2023-02-19T08:37:50;98120.63;;;7.51;100.00
27712;BME280;2377;51.734;8.950;2023-02-19T08:40:17;98122.34;;;7.44;100.00
27712;BME280;2377;51.734;8.950;2023-02-19T08:42:44;98129.16;;;7.43;100.00
27712;BME280;2377;51.734;8.950;2023-02-19T08:45:11;98132.63;;;7.35;100.00
27712;BME280;2377;51.734;8.950;2023-02-19T08:47:38;98143.19;;;7.32;100.00
27712;BME280;2377;51.734;8.950;2023-02-19T08:50:07;98153.75;;;7.36;100.00
27712;BME280;2377;51.734;8.950;2023-02-19T08:52:34;98152.38;;;7.33;100.00
27712;BME280;2377;51.734;8.950;2023-02-19T08:55:04;98159.66;;;7.36;100.00
27712;BME280;2377;51.734;8.950;2023-02-19T08:57:34;98159.66;;;7.36;100.00
27712;BME280;2377;51.734;8.950;2023-02-19T09:00:03;98156.13;;;7.37;100.00
27712;BME280;2377;51.734;8.950;2023-02-19T09:02:30;98154.91;;;7.33;100.00
27712;BME280;2377;51.734;8.950;2023-02-19T09:04:57;98163.88;;;7.29;99.94
27712;BME280;2377;51.734;8.950;2023-02-19T09:07:25;98161.94;;;7.31;100.00
27712;BME280;2377;51.734;8.950;2023-02-19T09:09:52;98174.06;;;7.29;100.00
27712;BME280;2377;51.734;8.950;2023-02-19T09:12:21;98189.03;;;7.24;100.00
27712;BME280;2377;51.734;8.950;2023-02-19T09:14:48;98193.56;;;7.22;99.98
27712;BME280;2377;51.734;8.950;2023-02-19T09:17:16;98194.50;;;7.21;100.00
27712;BME280;2377;51.734;8.950;2023-02-19T09:19:43;98191.25;;;7.27;100.00
27712;BME280;2377;51.734;8.950;2023-02-19T09:22:10;98192.25;;;7.33;100.00
27712;BME280;2377;51.734;8.950;2023-02-19T09:24:37;98202.25;;;7.34;100.00
27712;BME280;2377;51.734;8.950;2023-02-19T09:27:04;98197.34;;;7.33;100.00
27712;BME280;2377;51.734;8.950;2023-02-19T09:29:33;98207.97;;;7.36;100.00
27712;BME280;2377;51.734;8.950;2023-02-19T09:32:00;98217.16;;;7.37;100.00
27712;BME280;2377;51.734;8.950;2023-02-19T09:34:28;98208.50;;;7.32;100.00
27712;BME280;2377;51.734;8.950;2023-02-19T11:34:27;98420.44;;;7.75;99.41
27712;BME280;2377;51.734;8.950;2023-02-19T11:37:11;98414.66;;;7.81;100.00
27712;BME280;2377;51.734;8.950;2023-02-19T11:39:42;98418.13;;;7.95;100.00
27712;BME280;2377;51.734;8.950;2023-02-19T11:42:35;98414.19;;;7.93;98.39
27712;BME280;2377;51.734;8.950;2023-02-19T11:45:24;98408.28;;;7.92;98.89
27712;BME280;2377;51.734;8.950;2023-02-19T11:48:23;98413.06;;;7.95;98.93
27712;BME280;2377;51.734;8.950;2023-02-19T11:51:17;98422.78;;;7.92;95.75
27712;BME280;2377;51.734;8.950;2023-02-19T11:53:59;98420.00;;;7.87;94.52
27712;BME280;2377;51.734;8.950;2023-02-19T11:56:35;98421.94;;;7.84;94.14
27712;BME280;2377;51.734;8.950;2023-02-19T11:59:08;98422.97;;;7.90;95.96
27712;BME280;2377;51.734;8.950;2023-02-19T12:02:03;98420.84;;;7.94;94.24
27712;BME280;2377;51.734;8.950;2023-02-19T12:04:59;98413.81;;;7.96;93.70
27712;BME280;2377;51.734;8.950;2023-02-19T12:08:15;98409.09;;;7.93;90.42
27712;BME280;2377;51.734;8.950;2023-02-19T12:11:10;98402.94;;;8.02;92.27
27712;BME280;2377;51.734;8.950;2023-02-19T12:14:21;98399.53;;;8.16;91.09
27712;BME280;2377;51.734;8.950;2023-02-19T12:17:04;98403.28;;;8.20;90.76
27712;BME280;2377;51.734;8.950;2023-02-19T12:20:00;98396.09;;;8.24;89.03
27712;BME280;2377;51.734;8.950;2023-02-19T12:22:32;98400.63;;;8.29;90.18
27712;BME280;2377;51.734;8.950;2023-02-19T12:25:25;98394.22;;;8.33;91.19
27712;BME280;2377;51.734;8.950;2023-02-19T12:28:31;98401.38;;;8.44;90.30
27712;BME280;2377;51.734;8.950;2023-02-19T12:31:27;98405.50;;;8.45;89.75
27712;BME280;2377;51.734;8.950;2023-02-19T12:34:32;98404.72;;;8.44;89.13
27712;BME280;2377;51.734;8.950;2023-02-19T12:37:20;98403.66;;;8.39;85.99
27712;BME280;2377;51.734;8.950;2023-02-19T12:40:12;98398.94;;;8.36;88.34
27712;BME280;2377;51.734;8.950;2023-02-19T12:43:00;98410.00;;;8.43;89.06
27712;BME280;2377;51.734;8.950;2023-02-19T12:45:37;98417.88;;;8.48;89.13
27712;BME280;2377;51.734;8.950;2023-02-19T12:48:17;98422.03;;;8.56;90.08
27712;BME280;2377;51.734;8.950;2023-02-19T12:50:52;98433.28;;;8.61;89.20
27712;BME280;2377;51.734;8.950;2023-02-19T12:53:34;98438.72;;;8.58;86.69
27712;BME280;2377;51.734;8.950;2023-02-19T12:56:12;98446.56;;;8.57;87.89
27712;BME280;2377;51.734;8.950;2023-02-19T12:58:47;98447.34;;;8.57;87.24
27712;BME280;2377;51.734;8.950;2023-02-19T13:01:21;98448.13;;;8.58;87.80
27712;BME280;2377;51.734;8.950;2023-02-19T13:04:04;98451.66;;;8.57;86.98
27712;BME280;2377;51.734;8.950;2023-02-19T13:06:43;98453.16;;;8.51;86.79
27712;BME280;2377;51.734;8.950;2023-02-19T13:09:20;98460.22;;;8.49;86.52
27712;BME280;2377;51.734;8.950;2023-02-19T13:11:58;98470.22;;;8.51;87.60
27712;BME280;2377;51.734;8.950;2023-02-19T13:14:32;98462.81;;;8.56;86.30
27712;BME280;2377;51.734;8.950;2023-02-19T13:17:07;98466.50;;;8.53;86.58
27712;BME280;2377;51.734;8.950;2023-02-19T13:19:43;98469.59;;;8.49;86.11
27712;BME280;2377;51.734;8.950;2023-02-19T13:22:22;98473.91;;;8.48;86.31
27712;BME280;2377;51.734;8.950;2023-02-19T13:25:11;98468.22;;;8.46;86.19
27712;BME280;2377;51.734;8.950;2023-02-19T13:28:01;98473.06;;;8.41;85.62
27712;BME280;2377;51.734;8.950;2023-02-19T13:31:01;98474.56;;;8.35;85.43
27712;BME280;2377;51.734;8.950;2023-02-19T13:33:45;98469.25;;;8.37;86.37
27712;BME280;2377;51.734;8.950;2023-02-19T13:36:23;98482.00;;;8.37;85.62
27712;BME280;2377;51.734;8.950;2023-02-19T13:38:53;98477.22;;;8.27;84.21
27712;BME280;2377;51.734;8.950;2023-02-19T13:41:28;98477.13;;;8.20;84.00
27712;BME280;2377;51.734;8.950;2023-02-19T13:44:02;98478.91;;;8.20;84.82
27712;BME280;2377;51.734;8.950;2023-02-19T13:46:36;98483.28;;;8.26;85.86
27712;BME280;2377;51.734;8.950;2023-02-19T13:49:42;98485.91;;;8.33;86.73
27712;BME280;2377;51.734;8.950;2023-02-19T13:52:38;98485.03;;;8.25;84.32
27712;BME280;2377;51.734;8.950;2023-02-19T13:55:53;98468.91;;;8.18;84.99
27712;BME280;2377;51.734;8.950;2023-02-19T13:58:54;98467.75;;;8.21;84.04
27712;BME280;2377;51.734;8.950;2023-02-19T14:02:27;98463.81;;;8.18;84.34
27712;BME280;2377;51.734;8.950;2023-02-19T14:04:58;98467.31;;;8.17;84.40
27712;BME280;2377;51.734;8.950;2023-02-19T14:07:53;98463.81;;;8.18;85.67
27712;BME280;2377;51.734;8.950;2023-02-19T14:10:57;98469.41;;;8.29;86.05
27712;BME280;2377;51.734;8.950;2023-02-19T14:14:22;98469.63;;;8.34;84.61
27712;BME280;2377;51.734;8.950;2023-02-19T14:17:27;98480.19;;;8.31;84.21
27712;BME280;2377;51.734;8.950;2023-02-19T14:19:58;98474.56;;;8.35;84.93
27712;BME280;2377;51.734;8.950;2023-02-19T14:25:51;98491.50;;;8.43;84.81
27712;BME280;2377;51.734;8.950;2023-02-19T14:28:27;98499.38;;;8.48;85.09
27712;BME280;2377;51.734;8.950;2023-02-19T14:31:02;98498.16;;;8.44;84.27
27712;BME280;2377;51.734;8.950;2023-02-19T14:33:39;98497.81;;;8.47;85.56
27712;BME280;2377;51.734;8.950;2023-02-19T14:36:21;98496.75;;;8.56;84.99
27712;BME280;2377;51.734;8.950;2023-02-19T14:38:55;98490.66;;;8.57;85.82
27712;BME280;2377;51.734;8.950;2023-02-19T14:41:24;98497.94;;;8.60;86.21
27712;BME280;2377;51.734;8.950;2023-02-19T14:43:55;98505.41;;;8.62;84.99
27712;BME280;2377;51.734;8.950;2023-02-19T14:46:29;98506.97;;;8.63;85.73
27712;BME280;2377;51.734;8.950;2023-02-19T14:49:05;98518.16;;;8.62;84.89
27712;BME280;2377;51.734;8.950;2023-02-19T14:51:38;98523.97;;;8.56;85.94
27712;BME280;2377;51.734;8.950;2023-02-19T14:54:13;98514.56;;;8.56;85.76
27712;BME280;2377;51.734;8.950;2023-02-19T14:56:44;98522.81;;;8.58;85.94
27712;BME280;2377;51.734;8.950;2023-02-19T14:59:24;98523.78;;;8.57;85.19
27712;BME280;2377;51.734;8.950;2023-02-19T15:01:57;98525.34;;;8.58;86.12
27712;BME280;2377;51.734;8.950;2023-02-19T15:04:28;98525.34;;;8.58;86.44
27712;BME280;2377;51.734;8.950;2023-02-19T15:07:01;98515.16;;;8.58;85.87
27712;BME280;2377;51.734;8.950;2023-02-19T15:09:32;98523.78;;;8.57;85.82
27712;BME280;2377;51.734;8.950;2023-02-19T15:12:03;98521.41;;;8.56;85.77
27712;BME280;2377;51.734;8.950;2023-02-19T15:14:31;98510.81;;;8.52;84.24
27712;BME280;2377;51.734;8.950;2023-02-19T15:17:02;98499.16;;;8.43;84.10
27712;BME280;2377;51.734;8.950;2023-02-19T15:19:35;98499.16;;;8.43;83.60
27712;BME280;2377;51.734;8.950;2023-02-19T15:22:04;98502.75;;;8.34;84.46
27712;BME280;2377;51.734;8.950;2023-02-19T15:24:31;98501.34;;;8.31;83.77
27712;BME280;2377;51.734;8.950;2023-02-19T15:26:58;98487.84;;;8.31;83.60
27712;BME280;2377;51.734;8.950;2023-02-19T15:29:26;98483.09;;;8.27;84.58
27712;BME280;2377;51.734;8.950;2023-02-19T15:31:57;98484.06;;;8.26;83.79
27712;BME280;2377;51.734;8.950;2023-02-19T15:34:28;98475.81;;;8.24;84.61
27712;BME280;2377;51.734;8.950;2023-02-19T15:36:59;98472.09;;;8.27;84.72
27712;BME280;2377;51.734;8.950;2023-02-19T15:39:33;98471.09;;;8.21;84.48
27712;BME280;2377;51.734;8.950;2023-02-19T15:42:04;98466.94;;;8.20;85.42
27712;BME280;2377;51.734;8.950;2023-02-19T15:44:46;98479.09;;;8.18;nan
27712;BME280;2377;51.734;8.950;2023-02-19T15:47:25;98480.22;;;8.16;84.67
27712;BME280;2377;51.734;8.950;2023-02-19T15:49:59;98474.94;;;8.17;85.52
27712;BME280;2377;51.734;8.950;2023-02-19T15:52:40;98475.94;;;8.16;85.91
27712;BME280;2377;51.734;8.950;2023-02-19T15:55:26;98468.84;;;8.12;85.02